createdAt,value
2023-02-26T00:14:21.952Z,0.70
2023-02-26T00:17:08.098Z,0.70
2023-02-26T00:22:06.443Z,0.70
2023-02-26T00:27:04.835Z,0.80
2023-02-26T00:37:14.162Z,0.90
2023-02-26T00:39:53.537Z,0.90
2023-02-26T00:44:53.601Z,0.80
2023-02-26T00:47:30.893Z,0.80
2023-02-26T00:50:14.177Z,0.70
2023-02-26T00:52:52.774Z,0.70
2023-02-26T00:55:21.082Z,0.60
2023-02-26T00:57:50.695Z,0.60
2023-02-26T01:00:20.676Z,0.50
2023-02-26T01:05:20.425Z,0.50
2023-02-26T01:10:25.065Z,0.50
2023-02-26T01:20:37.805Z,0.40
2023-02-26T01:23:12.156Z,0.50
2023-02-26T01:25:42.718Z,0.50
2023-02-26T01:28:13.068Z,0.40
2023-02-26T01:30:42.398Z,0.50
2023-02-26T01:33:18.330Z,0.40
2023-02-26T01:35:51.768Z,0.50
2023-02-26T01:38:28.846Z,0.50
2023-02-26T01:41:37.397Z,0.50
2023-02-26T01:44:16.499Z,0.50
2023-02-26T01:47:05.590Z,0.50
2023-02-26T01:49:35.927Z,0.50
2023-02-26T01:52:06.331Z,0.50
2023-02-26T01:57:11.923Z,0.50
2023-02-26T02:02:17.462Z,0.50
2023-02-26T02:12:27.707Z,0.50
2023-02-26T02:17:56.030Z,0.60
2023-02-26T02:21:31.087Z,0.50
2023-02-26T02:24:06.364Z,0.50
2023-02-26T02:26:59.004Z,0.60
2023-02-26T02:32:27.278Z,0.60
2023-02-26T02:35:05.007Z,0.60
2023-02-26T02:40:12.251Z,0.60
2023-02-26T02:42:47.067Z,0.50
2023-02-26T02:45:22.219Z,0.50
2023-02-26T02:50:34.657Z,0.40
2023-02-26T02:53:07.997Z,0.30
2023-02-26T02:55:41.742Z,0.30
2023-02-26T02:58:14.527Z,0.20
2023-02-26T03:00:48.880Z,0.20
2023-02-26T03:08:28.884Z,0.10
2023-02-26T03:13:27.479Z,-0.10
2023-02-26T03:16:23.813Z,-0.10
2023-02-26T03:19:01.973Z,-0.10
2023-02-26T03:26:51.667Z,-0.10
2023-02-26T03:29:30.790Z,-0.20
2023-02-26T03:32:07.024Z,-0.10
2023-02-26T03:34:42.974Z,-0.10
2023-02-26T03:45:06.892Z,-0.20
2023-02-26T03:47:40.126Z,-0.20
2023-02-26T03:50:17.647Z,-0.20
2023-02-26T03:52:53.444Z,-0.20
2023-02-26T03:55:50.415Z,-0.20
2023-02-26T04:01:39.748Z,-0.20
2023-02-26T04:04:16.077Z,-0.20
2023-02-26T04:06:46.612Z,-0.20
2023-02-26T04:11:46.353Z,-0.20
2023-02-26T04:16:46.004Z,-0.30
2023-02-26T04:21:45.723Z,-0.30
2023-02-26T04:29:15.315Z,-0.40
2023-02-26T04:34:12.634Z,-0.40
2023-02-26T04:39:12.303Z,-0.40
2023-02-26T04:41:40.936Z,-0.50
2023-02-26T04:46:42.283Z,-0.50
2023-02-26T04:54:16.089Z,-0.50
2023-02-26T04:59:12.999Z,-0.60
2023-02-26T05:04:10.934Z,-0.60
2023-02-26T05:11:39.480Z,-0.60
2023-02-26T05:19:05.897Z,-0.70
2023-02-26T05:24:03.369Z,-0.60
2023-02-26T05:26:32.036Z,-0.60
2023-02-26T05:29:02.263Z,-0.50
2023-02-26T05:31:30.480Z,-0.50
2023-02-26T05:33:58.738Z,-0.50
2023-02-26T05:46:23.401Z,-0.50
2023-02-26T05:56:18.058Z,-0.70
2023-02-26T06:01:15.488Z,-0.70
2023-02-26T06:03:45.108Z,-0.80
2023-02-26T06:13:41.482Z,-0.80
2023-02-26T06:21:09.302Z,-0.90
2023-02-26T06:26:06.902Z,-0.90
2023-02-26T06:33:33.160Z,-0.90
2023-02-26T06:38:32.068Z,-0.90
2023-02-26T06:43:28.821Z,-0.80
2023-02-26T06:45:59.381Z,-0.80
2023-02-26T06:48:28.602Z,-0.80
2023-02-26T06:55:55.598Z,-0.70
2023-02-26T06:58:25.015Z,-0.60
2023-02-26T07:03:23.127Z,-0.40
2023-02-26T07:13:19.267Z,0.00
2023-02-26T07:30:42.326Z,1.00
2023-02-26T07:35:42.498Z,1.30
2023-02-26T07:43:07.817Z,1.30
2023-02-26T07:45:36.106Z,1.20
2023-02-26T07:48:05.767Z,1.10
2023-02-26T08:05:29.854Z,1.00
2023-02-26T08:17:54.175Z,1.30
2023-02-26T08:22:53.337Z,1.40
2023-02-26T08:35:18.161Z,1.60
2023-02-26T08:40:16.751Z,1.80
2023-02-26T08:47:55.556Z,2.00
2023-02-26T08:50:26.617Z,2.10
2023-02-26T08:55:25.123Z,2.40
2023-02-26T09:00:23.195Z,2.80
2023-02-26T09:12:47.802Z,2.80
2023-02-26T09:15:16.555Z,3.00
2023-02-26T09:25:13.895Z,4.30
2023-02-26T09:27:42.250Z,4.40
2023-02-26T09:40:16.757Z,3.70
2023-02-26T09:43:06.441Z,3.60
2023-02-26T09:45:40.133Z,3.60
2023-02-26T09:48:12.842Z,3.70
2023-02-26T09:50:46.862Z,3.70
2023-02-26T09:53:20.967Z,3.70
2023-02-26T09:55:51.365Z,3.80
2023-02-26T09:58:25.536Z,4.00
2023-02-26T10:01:06.677Z,4.10
2023-02-26T10:03:54.113Z,4.20
2023-02-26T10:06:28.630Z,4.30
2023-02-26T10:09:20.334Z,4.40
2023-02-26T10:11:57.326Z,4.70
2023-02-26T10:14:31.487Z,5.00
2023-02-26T10:17:06.845Z,5.10
2023-02-26T10:19:41.642Z,5.00
2023-02-26T10:22:21.588Z,5.00
2023-02-26T10:24:55.568Z,5.00
2023-02-26T10:27:38.298Z,5.00
2023-02-26T10:30:15.590Z,5.00
2023-02-26T10:32:58.961Z,4.90
2023-02-26T10:35:33.095Z,4.80
2023-02-26T10:38:05.852Z,4.90
2023-02-26T10:40:40.765Z,4.90
2023-02-26T10:43:17.153Z,4.80
2023-02-26T10:46:02.180Z,4.80
2023-02-26T10:48:47.150Z,4.70
2023-02-26T10:51:18.977Z,4.60
2023-02-26T10:53:51.967Z,4.60
2023-02-26T10:56:26.305Z,4.60
2023-02-26T10:58:55.141Z,4.70
2023-02-26T11:01:27.608Z,4.80
2023-02-26T11:04:02.978Z,4.80
2023-02-26T11:06:34.775Z,4.90
2023-02-26T11:09:06.254Z,5.00
2023-02-26T11:11:43.409Z,5.10
2023-02-26T11:14:12.467Z,5.20
2023-02-26T11:16:49.428Z,5.20
2023-02-26T11:19:21.269Z,5.30
2023-02-26T11:24:31.845Z,5.60
2023-02-26T11:27:04.076Z,5.90
2023-02-26T11:29:39.450Z,6.20
2023-02-26T11:32:15.268Z,6.20
2023-02-26T11:34:49.035Z,6.40
2023-02-26T11:37:21.149Z,6.80
2023-02-26T11:39:53.893Z,7.10
2023-02-26T11:44:53.075Z,7.50
2023-02-26T11:47:25.890Z,7.80
2023-02-26T11:49:57.569Z,7.60
2023-02-26T11:52:33.889Z,7.40
2023-02-26T11:55:06.887Z,7.10
2023-02-26T12:00:21.786Z,6.60
2023-02-26T12:05:20.174Z,6.20
2023-02-26T12:07:48.822Z,6.00
2023-02-26T12:10:23.874Z,5.90
2023-02-26T12:13:09.040Z,5.70
2023-02-26T12:15:44.155Z,5.70
2023-02-26T12:18:53.055Z,5.60
2023-02-26T12:21:55.415Z,5.70
2023-02-26T12:25:00.035Z,5.70
2023-02-26T12:27:44.206Z,5.70
2023-02-26T12:30:42.490Z,5.60
2023-02-26T12:33:26.081Z,5.60
2023-02-26T12:36:46.490Z,5.80
2023-02-26T12:39:36.357Z,6.00
2023-02-26T12:42:29.814Z,6.10
2023-02-26T12:45:29.159Z,6.20
2023-02-26T12:48:16.252Z,6.50
2023-02-26T12:51:01.501Z,6.60
2023-02-26T12:53:52.667Z,9.50
2023-02-26T12:57:09.842Z,6.60
2023-02-26T13:00:14.726Z,6.60
2023-02-26T13:03:55.692Z,6.50
2023-02-26T13:07:10.349Z,6.30
2023-02-26T13:10:00.281Z,6.40
2023-02-26T13:12:42.109Z,6.40
2023-02-26T13:15:38.859Z,6.50
2023-02-26T13:18:15.738Z,6.60
2023-02-26T13:20:55.747Z,6.90
2023-02-26T13:23:29.455Z,7.10
2023-02-26T13:26:03.267Z,7.00
2023-02-26T13:28:41.544Z,6.90
2023-02-26T13:31:14.987Z,6.80
2023-02-26T13:33:46.014Z,6.90
2023-02-26T13:36:17.392Z,7.20
2023-02-26T13:39:05.528Z,7.30
2023-02-26T13:41:47.429Z,7.10
2023-02-26T13:44:36.992Z,7.00
2023-02-26T13:47:42.518Z,6.90
2023-02-26T13:50:32.402Z,6.70
2023-02-26T13:53:06.099Z,6.40
2023-02-26T13:55:45.454Z,6.30
2023-02-26T13:58:41.450Z,6.20
2023-02-26T14:01:16.262Z,9.10
2023-02-26T14:03:51.659Z,5.90
2023-02-26T14:06:45.236Z,5.80
2023-02-26T14:09:46.833Z,5.70
2023-02-26T14:12:37.605Z,5.50
2023-02-26T14:15:43.443Z,5.40
2023-02-26T14:18:31.632Z,5.30
2023-02-26T14:21:49.925Z,5.20
2023-02-26T14:24:24.242Z,5.10
2023-02-26T14:27:09.355Z,5.00
2023-02-26T14:29:42.617Z,5.00
2023-02-26T14:32:28.393Z,5.00
2023-02-26T14:35:00.056Z,4.90
2023-02-26T14:37:29.715Z,4.90
2023-02-26T14:40:08.829Z,4.80
2023-02-26T14:42:42.506Z,4.70
2023-02-26T14:45:27.064Z,4.70
2023-02-26T14:47:59.185Z,4.70
2023-02-26T14:50:35.636Z,4.70
2023-02-26T14:53:46.416Z,4.60
2023-02-26T14:56:26.549Z,4.60
2023-02-26T14:59:34.981Z,4.60
2023-02-26T15:02:19.693Z,4.60
2023-02-26T15:05:30.640Z,4.60
2023-02-26T15:08:14.483Z,4.70
2023-02-26T15:11:05.866Z,4.70
2023-02-26T15:14:01.711Z,4.80
2023-02-26T15:16:46.337Z,5.00
2023-02-26T15:19:31.414Z,5.10
2023-02-26T15:22:24.521Z,5.20
2023-02-26T15:24:53.561Z,5.40
2023-02-26T15:27:23.115Z,5.50
2023-02-26T15:29:53.358Z,5.50
2023-02-26T15:32:28.750Z,5.40
2023-02-26T15:35:00.957Z,5.30
2023-02-26T15:37:33.568Z,5.20
2023-02-26T15:40:05.107Z,5.30
2023-02-26T15:42:38.535Z,5.30
2023-02-26T15:45:14.269Z,5.40
2023-02-26T15:50:17.249Z,5.50
2023-02-26T15:52:52.453Z,5.40
2023-02-26T15:57:49.704Z,5.30
2023-02-26T16:00:24.676Z,5.10
2023-02-26T16:02:57.097Z,5.00
2023-02-26T16:05:27.042Z,4.90
2023-02-26T16:07:57.462Z,4.90
2023-02-26T16:10:33.919Z,4.80
2023-02-26T16:13:03.247Z,4.70
2023-02-26T16:15:36.155Z,4.70
2023-02-26T16:18:08.620Z,4.60
2023-02-26T16:20:42.626Z,4.60
2023-02-26T16:23:17.158Z,4.40
2023-02-26T16:25:54.231Z,4.40
2023-02-26T16:28:27.521Z,4.30
2023-02-26T16:30:58.647Z,4.20
2023-02-26T16:33:28.589Z,4.10
2023-02-26T16:36:05.817Z,4.00
2023-02-26T16:38:47.016Z,4.00
2023-02-26T16:41:15.710Z,3.90
2023-02-26T16:43:56.726Z,3.80
2023-02-26T16:46:38.939Z,3.70
2023-02-26T16:49:18.425Z,3.70
2023-02-26T16:51:48.840Z,3.70
2023-02-26T16:54:23.413Z,3.60
2023-02-26T16:57:00.120Z,3.60
2023-02-26T16:59:33.011Z,3.60
2023-02-26T17:04:36.914Z,3.50
2023-02-26T17:07:17.709Z,3.40
2023-02-26T17:09:52.103Z,3.40
2023-02-26T17:12:25.086Z,3.30
2023-02-26T17:14:58.361Z,3.30
2023-02-26T17:22:29.890Z,3.10
2023-02-26T17:24:59.488Z,3.20
2023-02-26T17:27:31.788Z,3.30
2023-02-26T17:30:04.145Z,3.20
2023-02-26T17:32:32.536Z,3.30
2023-02-26T17:37:35.130Z,3.20
2023-02-26T17:40:15.882Z,3.20
2023-02-26T17:52:58.086Z,3.10
2023-02-26T17:55:27.829Z,3.00
2023-02-26T17:57:57.365Z,3.00
2023-02-26T18:00:26.422Z,2.90
2023-02-26T18:02:54.694Z,2.80
2023-02-26T18:10:25.182Z,2.60
2023-02-26T18:12:54.888Z,2.60
2023-02-26T18:20:23.383Z,2.60
2023-02-26T18:22:52.067Z,2.50
2023-02-26T18:27:59.933Z,2.50
2023-02-26T18:30:31.903Z,2.50
2023-02-26T18:35:31.750Z,2.50
2023-02-26T18:42:58.839Z,2.60
2023-02-26T18:52:53.586Z,2.60
2023-02-26T18:55:21.815Z,2.60
2023-02-26T18:57:50.048Z,2.60
2023-02-26T19:05:23.214Z,2.50
2023-02-26T19:07:52.100Z,2.50
2023-02-26T19:15:20.658Z,2.40
2023-02-26T19:30:13.951Z,2.00
2023-02-26T19:32:43.705Z,1.90
2023-02-26T19:35:11.943Z,1.90
2023-02-26T19:40:16.091Z,1.70
2023-02-26T19:42:45.264Z,1.70
2023-02-26T19:45:14.222Z,1.60
2023-02-26T19:47:44.005Z,1.60
2023-02-26T19:50:14.005Z,1.60
2023-02-26T19:55:12.119Z,1.50
2023-02-26T20:00:11.080Z,1.40
2023-02-26T20:02:43.576Z,1.40
2023-02-26T20:10:15.628Z,1.40
2023-02-26T20:15:13.950Z,1.30
2023-02-26T20:17:43.712Z,1.20
2023-02-26T20:20:13.069Z,1.20
2023-02-26T20:25:10.805Z,1.10
2023-02-26T20:27:39.409Z,1.10
2023-02-26T20:30:10.022Z,1.10
2023-02-26T20:35:09.608Z,1.00
2023-02-26T20:40:09.438Z,0.90
2023-02-26T20:42:38.175Z,0.90
2023-02-26T20:47:36.489Z,0.80
2023-02-26T20:52:34.884Z,0.80
2023-02-26T21:07:31.708Z,0.50
2023-02-26T21:10:01.454Z,0.50
2023-02-26T21:12:30.867Z,0.40
2023-02-26T21:17:28.338Z,0.30
2023-02-26T21:19:57.468Z,0.30
2023-02-26T21:24:54.293Z,0.20
2023-02-26T21:27:23.837Z,0.00
2023-02-26T21:32:20.727Z,0.20
2023-02-26T21:44:47.989Z,0.00
2023-02-26T22:02:13.077Z,-0.20
2023-02-26T22:07:10.328Z,-0.30
2023-02-26T22:12:08.413Z,-0.30
2023-02-26T22:19:35.694Z,-0.40
2023-02-26T22:22:03.967Z,-0.40
2023-02-26T22:34:27.369Z,-0.60
2023-02-26T22:36:56.921Z,-0.60
2023-02-26T22:39:25.477Z,-0.70
2023-02-26T22:54:18.785Z,-0.80
2023-02-26T23:01:44.283Z,-0.80
2023-02-26T23:11:39.889Z,-0.90
2023-02-26T23:24:03.087Z,-0.90
2023-02-26T23:36:27.833Z,-0.90
2023-02-26T23:43:53.466Z,-0.90
2023-02-26T23:46:23.209Z,-0.90
